createdAt,value
2019-01-21T00:00:37.317Z,45.23
2019-01-21T00:03:14.334Z,46.00
2019-01-21T00:05:42.259Z,48.28
2019-01-21T00:08:13.632Z,51.92
2019-01-21T00:10:44.934Z,47.75
2019-01-21T00:13:16.303Z,46.05
2019-01-21T00:15:47.828Z,42.03
2019-01-21T00:18:19.204Z,53.42
2019-01-21T00:20:50.573Z,53.05
2019-01-21T00:23:22.180Z,51.70
2019-01-21T00:25:53.441Z,53.87
2019-01-21T00:28:24.753Z,52.33
2019-01-21T00:30:56.063Z,56.40
2019-01-21T00:33:27.430Z,60.30
2019-01-21T00:35:58.703Z,63.15
2019-01-21T00:38:30.026Z,53.00
2019-01-21T00:41:01.374Z,58.30
2019-01-21T00:43:32.702Z,56.92
2019-01-21T00:46:03.966Z,54.30
2019-01-21T00:48:35.273Z,57.62
2019-01-21T00:51:06.601Z,57.95
2019-01-21T00:53:38.082Z,62.60
2019-01-21T00:56:09.381Z,60.60
2019-01-21T00:58:40.750Z,57.85
2019-01-21T01:01:12.160Z,53.63
2019-01-21T01:03:43.756Z,58.05
2019-01-21T01:06:15.162Z,59.13
2019-01-21T01:08:46.506Z,60.08
2019-01-21T01:11:18.032Z,55.78
2019-01-21T01:13:49.533Z,56.00
2019-01-21T01:16:20.843Z,60.48
2019-01-21T01:18:52.228Z,59.58
2019-01-21T01:21:23.528Z,57.23
2019-01-21T01:24:13.195Z,55.55
2019-01-21T01:26:44.495Z,49.13
2019-01-21T01:29:15.863Z,46.53
2019-01-21T01:31:47.249Z,49.65
2019-01-21T01:34:18.527Z,47.17
2019-01-21T01:36:49.864Z,46.40
2019-01-21T01:39:21.251Z,52.10
2019-01-21T01:41:52.577Z,48.70
2019-01-21T01:44:23.919Z,52.13
2019-01-21T01:46:55.239Z,49.30
2019-01-21T01:49:26.595Z,48.13
2019-01-21T01:51:57.878Z,48.65
2019-01-21T01:54:29.209Z,48.33
2019-01-21T01:57:00.798Z,48.17
2019-01-21T01:59:32.122Z,46.02
2019-01-21T02:02:03.452Z,48.92
2019-01-21T02:04:34.927Z,46.05
2019-01-21T02:07:06.611Z,45.40
2019-01-21T02:09:37.958Z,40.15
2019-01-21T02:12:09.259Z,46.53
2019-01-21T02:14:40.549Z,51.88
2019-01-21T02:17:11.862Z,51.37
2019-01-21T02:19:43.695Z,42.15
2019-01-21T02:22:15.037Z,42.30
2019-01-21T02:24:46.443Z,46.42
2019-01-21T02:27:18.314Z,46.45
2019-01-21T02:30:38.070Z,44.42
2019-01-21T02:33:18.319Z,40.52
2019-01-21T02:36:14.851Z,44.13
2019-01-21T02:39:08.567Z,40.10
2019-01-21T02:41:40.542Z,42.35
2019-01-21T02:44:58.309Z,39.92
2019-01-21T02:47:44.630Z,40.12
2019-01-21T02:50:42.467Z,42.48
2019-01-21T02:53:37.437Z,42.25
2019-01-21T02:56:32.441Z,39.23
2019-01-21T02:59:12.355Z,46.70
2019-01-21T03:02:19.631Z,37.75
2019-01-21T03:05:17.500Z,42.20
2019-01-21T03:08:28.062Z,43.98
2019-01-21T03:11:11.145Z,39.30
2019-01-21T03:14:06.431Z,41.45
2019-01-21T03:16:55.725Z,39.60
2019-01-21T03:19:41.677Z,40.63
2019-01-21T03:22:33.849Z,42.23
2019-01-21T03:25:28.733Z,41.95
2019-01-21T03:28:36.290Z,40.90
2019-01-21T03:31:40.058Z,45.03
2019-01-21T03:34:44.802Z,44.08
2019-01-21T03:37:41.015Z,45.52
2019-01-21T03:40:37.542Z,44.05
2019-01-21T03:43:37.302Z,43.80
2019-01-21T03:46:25.518Z,50.25
2019-01-21T03:49:02.607Z,41.90
2019-01-21T03:52:12.815Z,40.55
2019-01-21T03:54:46.143Z,38.48
2019-01-21T03:57:38.367Z,45.67
2019-01-21T04:00:24.618Z,45.38
2019-01-21T04:03:19.346Z,41.77
2019-01-21T04:06:05.601Z,50.83
2019-01-21T04:08:45.642Z,40.15
2019-01-21T04:11:34.389Z,51.42
2019-01-21T04:14:38.796Z,43.85
2019-01-21T04:17:36.559Z,39.92
2019-01-21T04:20:31.807Z,39.20
2019-01-21T04:23:33.060Z,43.25
2019-01-21T04:26:42.065Z,42.03
2019-01-21T04:29:57.043Z,37.20
2019-01-21T04:32:40.060Z,42.15
2019-01-21T04:35:39.523Z,45.17
2019-01-21T04:38:28.770Z,41.00
2019-01-21T04:41:14.794Z,43.68
2019-01-21T04:44:11.533Z,41.80
2019-01-21T04:47:14.346Z,38.78
2019-01-21T04:49:57.424Z,40.20
2019-01-21T04:52:37.366Z,42.10
2019-01-21T04:55:20.651Z,45.10
2019-01-21T04:58:32.787Z,37.58
2019-01-21T05:01:35.682Z,40.83
2019-01-21T05:04:27.439Z,40.23
2019-01-21T05:07:22.264Z,43.10
2019-01-21T05:10:05.286Z,39.13
2019-01-21T05:13:09.631Z,39.40
2019-01-21T05:15:52.850Z,41.45
2019-01-21T05:19:03.338Z,37.63
2019-01-21T05:22:13.017Z,40.23
2019-01-21T05:25:20.207Z,39.30
2019-01-21T05:28:03.277Z,41.13
2019-01-21T05:31:19.514Z,44.95
2019-01-21T05:34:14.578Z,43.40
2019-01-21T05:37:13.266Z,44.63
2019-01-21T05:40:10.604Z,39.50
2019-01-21T05:43:08.661Z,41.68
2019-01-21T05:46:05.585Z,40.28
2019-01-21T05:49:02.720Z,42.27
2019-01-21T05:51:54.260Z,43.45
2019-01-21T05:55:03.340Z,39.88
2019-01-21T05:57:59.886Z,41.53
2019-01-21T06:00:55.462Z,40.90
2019-01-21T06:03:53.139Z,41.05
2019-01-21T06:07:11.237Z,50.12
2019-01-21T06:09:48.273Z,46.20
2019-01-21T06:12:31.059Z,42.38
2019-01-21T06:15:26.094Z,47.37
2019-01-21T06:18:17.820Z,46.45
2019-01-21T06:21:09.538Z,44.03
2019-01-21T06:24:15.216Z,46.63
2019-01-21T06:27:13.775Z,46.25
2019-01-21T06:30:15.094Z,44.42
2019-01-21T06:33:31.928Z,42.78
2019-01-21T06:36:24.207Z,42.30
2019-01-21T06:39:37.829Z,40.75
2019-01-21T06:42:27.065Z,46.63
2019-01-21T06:45:12.995Z,47.23
2019-01-21T06:48:21.783Z,45.85
2019-01-21T06:51:22.739Z,61.33
2019-01-21T06:54:27.286Z,45.05
2019-01-21T06:57:33.879Z,50.67
2019-01-21T07:00:22.450Z,43.95
2019-01-21T07:03:34.062Z,41.83
2019-01-21T07:06:37.197Z,42.98
2019-01-21T07:09:29.051Z,45.25
2019-01-21T07:12:15.097Z,45.98
2019-01-21T07:15:09.921Z,43.17
2019-01-21T07:18:04.693Z,43.05
2019-01-21T07:20:44.591Z,44.83
2019-01-21T07:23:42.497Z,43.23
2019-01-21T07:26:37.183Z,49.20
2019-01-21T07:29:43.393Z,48.95
2019-01-21T07:32:23.205Z,46.40
2019-01-21T07:35:15.190Z,42.53
2019-01-21T07:38:16.345Z,46.35
2019-01-21T07:41:08.070Z,41.10
2019-01-21T07:43:48.063Z,43.25
2019-01-21T07:46:46.402Z,44.63
2019-01-21T07:49:35.503Z,51.08
2019-01-21T07:52:50.844Z,42.53
2019-01-21T07:55:50.887Z,42.78
2019-01-21T07:58:42.157Z,45.78
2019-01-21T08:01:28.038Z,45.25
2019-01-21T08:04:29.488Z,49.35
2019-01-21T08:07:15.040Z,45.80
2019-01-21T08:10:15.871Z,48.55
2019-01-21T08:13:13.754Z,53.15
2019-01-21T08:16:02.591Z,42.17
2019-01-21T08:18:57.291Z,45.45
2019-01-21T08:21:42.628Z,44.03
2019-01-21T08:24:48.324Z,50.00
2019-01-21T08:27:51.019Z,52.78
2019-01-21T08:30:36.829Z,49.70
2019-01-21T08:33:26.171Z,46.68
2019-01-21T08:36:06.235Z,49.27
2019-01-21T08:38:51.984Z,50.90
2019-01-21T08:41:59.925Z,47.03
2019-01-21T08:45:03.867Z,53.33
2019-01-21T08:47:43.812Z,54.88
2019-01-21T08:50:29.971Z,50.48
2019-01-21T08:53:31.308Z,56.42
2019-01-21T08:56:26.768Z,53.85
2019-01-21T08:59:09.559Z,56.75
2019-01-21T09:02:21.862Z,57.75
2019-01-21T09:05:27.698Z,69.05
2019-01-21T09:08:30.765Z,60.90
2019-01-21T09:11:39.898Z,67.97
2019-01-21T09:14:42.305Z,69.62
2019-01-21T09:17:37.578Z,66.65
2019-01-21T09:20:36.049Z,64.35
2019-01-21T09:23:39.753Z,66.07
2019-01-21T09:26:34.957Z,72.30
2019-01-21T09:29:20.691Z,72.53
2019-01-21T09:32:21.383Z,90.92
2019-01-21T09:35:13.470Z,73.50
2019-01-21T09:38:13.127Z,81.90
2019-01-21T09:41:02.129Z,79.60
2019-01-21T09:43:39.243Z,78.15
2019-01-21T09:46:45.162Z,73.97
2019-01-21T09:49:17.898Z,76.85
2019-01-21T09:51:52.028Z,85.53
2019-01-21T09:54:23.404Z,71.57
2019-01-21T09:56:55.962Z,73.87
2019-01-21T09:59:27.379Z,76.05
2019-01-21T10:01:59.626Z,75.95
2019-01-21T10:04:41.444Z,70.70
2019-01-21T10:07:39.433Z,64.70
2019-01-21T10:10:33.889Z,76.45
2019-01-21T10:13:50.847Z,73.05
2019-01-21T10:16:36.814Z,75.75
2019-01-21T10:19:37.855Z,64.27
2019-01-21T10:22:44.542Z,60.78
2019-01-21T10:25:32.978Z,66.82
2019-01-21T10:28:24.392Z,66.70
2019-01-21T10:31:20.570Z,60.75
2019-01-21T10:34:06.062Z,61.50
2019-01-21T10:36:48.852Z,63.80
2019-01-21T10:39:53.353Z,59.10
2019-01-21T10:43:03.923Z,57.30
2019-01-21T10:45:49.961Z,56.50
2019-01-21T10:48:45.208Z,57.03
2019-01-21T10:51:40.017Z,61.92
2019-01-21T10:54:25.975Z,62.73
2019-01-21T10:57:33.554Z,61.95
2019-01-21T11:00:34.812Z,60.60
2019-01-21T11:03:23.989Z,64.47
2019-01-21T11:06:03.915Z,57.55
2019-01-21T11:09:12.637Z,63.13
2019-01-21T11:11:55.662Z,65.32
2019-01-21T11:14:35.658Z,61.33
2019-01-21T11:17:42.722Z,63.23
2019-01-21T11:20:57.475Z,61.85
2019-01-21T11:24:08.981Z,60.85
2019-01-21T11:26:48.700Z,58.00
2019-01-21T11:29:38.001Z,61.18
2019-01-21T11:32:32.855Z,63.35
2019-01-21T11:35:27.370Z,59.73
2019-01-21T11:38:43.813Z,56.63
2019-01-21T11:41:33.271Z,57.53
2019-01-21T11:44:30.046Z,55.10
2019-01-21T11:47:33.173Z,60.17
2019-01-21T11:50:43.563Z,51.95
2019-01-21T11:53:53.210Z,47.00
2019-01-21T11:56:50.686Z,48.20
2019-01-21T11:59:33.962Z,52.00
2019-01-21T12:02:11.071Z,47.53
2019-01-21T12:04:59.986Z,46.65
2019-01-21T12:07:56.809Z,49.70
2019-01-21T12:10:48.540Z,46.10
2019-01-21T12:13:46.629Z,47.55
2019-01-21T12:16:46.402Z,49.40
2019-01-21T12:19:43.054Z,47.58
2019-01-21T12:22:23.202Z,48.92
2019-01-21T12:25:00.228Z,49.63
2019-01-21T12:27:56.974Z,47.83
2019-01-21T12:30:56.864Z,44.80
2019-01-21T12:33:48.900Z,47.13
2019-01-21T12:36:28.703Z,45.75
2019-01-21T12:39:14.895Z,41.60
2019-01-21T12:42:13.117Z,42.70
2019-01-21T12:45:07.877Z,44.67
2019-01-21T12:47:54.038Z,37.42
2019-01-21T12:50:43.318Z,45.83
2019-01-21T12:53:35.603Z,48.40
2019-01-21T12:56:44.057Z,43.78
2019-01-21T12:59:52.729Z,40.78
2019-01-21T13:02:52.677Z,41.23
2019-01-21T13:06:09.002Z,38.60
2019-01-21T13:09:19.909Z,39.95
2019-01-21T13:12:39.638Z,45.45
2019-01-21T13:15:22.402Z,45.17
2019-01-21T13:18:05.503Z,42.43
2019-01-21T13:20:47.977Z,44.65
2019-01-21T13:23:28.078Z,42.43
2019-01-21T13:26:19.672Z,46.18
2019-01-21T13:28:59.396Z,42.05
2019-01-21T13:31:54.336Z,43.83
2019-01-21T13:34:37.237Z,43.90
2019-01-21T13:37:47.876Z,44.27
2019-01-21T13:40:45.580Z,44.83
2019-01-21T13:43:37.591Z,42.38
2019-01-21T13:46:29.723Z,45.92
2019-01-21T13:49:06.770Z,46.00
2019-01-21T13:51:46.786Z,44.18
2019-01-21T13:54:29.634Z,41.85
2019-01-21T13:57:27.443Z,40.98
2019-01-21T14:00:28.662Z,44.70
2019-01-21T14:03:14.639Z,43.23
2019-01-21T14:06:24.371Z,40.85
2019-01-21T14:09:06.963Z,40.20
2019-01-21T14:11:47.029Z,37.42
2019-01-21T14:14:33.084Z,38.78
2019-01-21T14:17:29.820Z,38.05
2019-01-21T14:20:16.862Z,38.58
2019-01-21T14:23:06.236Z,44.75
2019-01-21T14:25:46.001Z,37.13
2019-01-21T14:28:33.969Z,39.08
2019-01-21T14:31:32.380Z,38.67
2019-01-21T14:34:30.069Z,39.75
2019-01-21T14:37:24.766Z,37.33
2019-01-21T14:40:16.944Z,33.50
2019-01-21T14:43:27.547Z,34.58
2019-01-21T14:46:23.102Z,40.23
2019-01-21T14:49:04.793Z,37.53
2019-01-21T14:52:17.990Z,36.70
2019-01-21T14:55:11.501Z,35.98
2019-01-21T14:57:57.571Z,31.82
2019-01-21T15:00:49.553Z,28.80
2019-01-21T15:03:52.642Z,36.45
2019-01-21T15:06:58.686Z,35.20
2019-01-21T15:09:57.329Z,30.25
2019-01-21T15:12:37.354Z,36.25
2019-01-21T15:15:32.731Z,34.65
2019-01-21T15:18:21.502Z,37.00
2019-01-21T15:21:16.635Z,37.67
2019-01-21T15:24:09.126Z,33.92
2019-01-21T15:27:22.929Z,36.88
2019-01-21T15:30:16.889Z,33.75
2019-01-21T15:33:03.757Z,38.88
2019-01-21T15:36:09.354Z,34.60
2019-01-21T15:38:52.559Z,37.58
2019-01-21T15:41:38.477Z,41.48
2019-01-21T15:44:15.685Z,35.68
2019-01-21T15:47:16.499Z,47.70
2019-01-21T15:50:14.167Z,35.43
2019-01-21T15:53:06.520Z,38.05
2019-01-21T15:55:49.565Z,42.50
2019-01-21T15:58:38.238Z,37.00
2019-01-21T16:01:21.011Z,38.92
2019-01-21T16:04:06.499Z,42.83
2019-01-21T16:07:09.173Z,39.38
2019-01-21T16:10:00.970Z,42.45
2019-01-21T16:13:11.263Z,46.15
2019-01-21T16:15:57.344Z,42.27
2019-01-21T16:18:49.457Z,39.75
2019-01-21T16:21:59.481Z,44.35
2019-01-21T16:24:56.950Z,42.45
2019-01-21T16:27:43.132Z,43.52
2019-01-21T16:30:58.467Z,44.10
2019-01-21T16:33:57.909Z,44.10
2019-01-21T16:36:52.738Z,45.05
2019-01-21T16:39:42.789Z,49.58
2019-01-21T16:42:14.108Z,47.23
2019-01-21T16:44:45.852Z,48.48
2019-01-21T16:47:17.285Z,50.43
2019-01-21T16:49:48.550Z,52.85
2019-01-21T16:52:20.028Z,54.85
2019-01-21T16:54:51.272Z,62.05
2019-01-21T16:57:22.625Z,56.42
2019-01-21T16:59:53.903Z,59.95
2019-01-21T17:02:25.185Z,57.43
2019-01-21T17:04:56.607Z,59.88
2019-01-21T17:07:27.929Z,69.58
2019-01-21T17:09:59.469Z,61.42
2019-01-21T17:12:30.897Z,77.25
2019-01-21T17:15:06.817Z,91.15
2019-01-21T17:17:38.126Z,88.42
2019-01-21T17:20:14.960Z,87.75
2019-01-21T17:22:46.516Z,74.45
2019-01-21T17:25:18.090Z,79.58
2019-01-21T17:27:49.507Z,81.25
2019-01-21T17:30:20.833Z,114.28
2019-01-21T17:32:52.297Z,116.90
2019-01-21T17:35:23.571Z,116.05
2019-01-21T17:37:55.346Z,133.57
2019-01-21T17:40:26.659Z,123.53
2019-01-21T17:42:58.104Z,109.52
2019-01-21T17:45:29.517Z,106.55
2019-01-21T17:48:00.836Z,132.00
2019-01-21T17:50:32.360Z,98.95
2019-01-21T17:53:03.765Z,114.77
2019-01-21T17:55:35.085Z,101.50
2019-01-21T17:58:06.400Z,96.87
2019-01-21T18:00:37.723Z,78.70
2019-01-21T18:03:09.147Z,70.08
2019-01-21T18:05:40.754Z,68.25
2019-01-21T18:08:12.172Z,72.97
2019-01-21T18:10:43.481Z,60.92
2019-01-21T18:13:14.846Z,70.03
2019-01-21T18:15:46.108Z,68.78
2019-01-21T18:18:17.473Z,74.95
2019-01-21T18:20:48.794Z,69.15
2019-01-21T18:23:23.641Z,70.96
2019-01-21T18:25:55.079Z,60.80
2019-01-21T18:28:26.569Z,64.42
2019-01-21T18:30:57.834Z,68.85
2019-01-21T18:33:29.231Z,74.75
2019-01-21T18:36:00.508Z,62.85
2019-01-21T18:38:31.975Z,66.55
2019-01-21T18:41:03.376Z,69.60
2019-01-21T18:43:34.735Z,76.10
2019-01-21T18:46:06.023Z,66.80
2019-01-21T18:48:37.607Z,66.30
2019-01-21T18:51:09.008Z,71.72
2019-01-21T18:53:40.423Z,76.07
2019-01-21T18:56:11.774Z,83.85
2019-01-21T18:58:43.246Z,84.95
2019-01-21T19:01:14.668Z,77.08
2019-01-21T19:03:46.092Z,76.92
2019-01-21T19:06:18.169Z,73.83
2019-01-21T19:08:49.616Z,71.97
2019-01-21T19:11:20.998Z,74.97
2019-01-21T19:13:52.609Z,81.20
2019-01-21T19:16:24.495Z,73.37
2019-01-21T19:18:56.163Z,70.22
2019-01-21T19:21:27.618Z,66.35
2019-01-21T19:23:59.385Z,71.97
2019-01-21T19:26:30.714Z,71.25
2019-01-21T19:29:02.037Z,70.08
2019-01-21T19:31:33.516Z,74.85
2019-01-21T19:34:05.173Z,74.05
2019-01-21T19:36:36.542Z,75.25
2019-01-21T19:39:07.845Z,83.47
2019-01-21T19:41:39.180Z,99.20
2019-01-21T19:44:10.511Z,98.62
2019-01-21T19:46:44.204Z,81.72
2019-01-21T19:49:15.041Z,80.97
2019-01-21T19:51:46.343Z,85.25
2019-01-21T19:54:17.821Z,80.77
2019-01-21T19:56:49.119Z,73.33
2019-01-21T19:59:20.766Z,74.03
2019-01-21T20:01:52.039Z,82.62
2019-01-21T20:04:23.489Z,100.18
2019-01-21T20:06:54.885Z,103.17
2019-01-21T20:09:26.200Z,91.67
2019-01-21T20:11:57.540Z,77.65
2019-01-21T20:14:28.833Z,72.40
2019-01-21T20:17:00.113Z,70.25
2019-01-21T20:19:31.418Z,67.05
2019-01-21T20:22:07.319Z,66.97
2019-01-21T20:24:36.277Z,74.00
2019-01-21T20:27:25.909Z,66.10
2019-01-21T20:29:57.386Z,72.10
2019-01-21T20:32:28.741Z,67.08
2019-01-21T20:35:00.308Z,69.80
2019-01-21T20:37:31.955Z,75.30
2019-01-21T20:40:14.224Z,71.37
2019-01-21T20:42:45.725Z,72.05
2019-01-21T20:45:17.247Z,79.03
2019-01-21T20:47:48.751Z,76.75
2019-01-21T20:50:23.748Z,73.20
2019-01-21T20:52:55.176Z,69.72
2019-01-21T20:55:26.838Z,77.50
2019-01-21T20:57:58.122Z,79.00
2019-01-21T21:00:29.632Z,86.50
2019-01-21T21:03:01.455Z,104.10
2019-01-21T21:05:33.143Z,99.85
2019-01-21T21:08:04.428Z,111.55
2019-01-21T21:10:35.717Z,110.03
2019-01-21T21:13:07.250Z,111.20
2019-01-21T21:15:38.610Z,98.27
2019-01-21T21:18:09.916Z,105.63
2019-01-21T21:20:41.218Z,89.47
2019-01-21T21:23:12.646Z,90.32
2019-01-21T21:25:43.926Z,85.07
2019-01-21T21:28:15.243Z,84.97
2019-01-21T21:30:46.617Z,84.28
2019-01-21T21:33:17.911Z,84.77
2019-01-21T21:35:49.393Z,82.15
2019-01-21T21:38:20.670Z,82.92
2019-01-21T21:40:51.980Z,84.42
2019-01-21T21:43:23.473Z,80.72
2019-01-21T21:45:54.930Z,87.17
2019-01-21T21:48:31.697Z,92.33
2019-01-21T21:50:59.733Z,95.30
2019-01-21T21:53:31.105Z,94.42
2019-01-21T21:56:02.554Z,90.65
2019-01-21T21:58:34.034Z,95.22
2019-01-21T22:01:05.504Z,88.03
2019-01-21T22:03:37.006Z,100.78
2019-01-21T22:06:08.317Z,88.33
2019-01-21T22:08:39.652Z,91.35
2019-01-21T22:11:11.023Z,92.20
2019-01-21T22:13:42.369Z,91.67
2019-01-21T22:16:13.717Z,96.90
2019-01-21T22:18:45.150Z,135.90
2019-01-21T22:21:16.475Z,124.35
2019-01-21T22:23:47.927Z,122.65
2019-01-21T22:26:19.327Z,102.38
2019-01-21T22:28:50.651Z,104.97
2019-01-21T22:31:22.105Z,118.82
2019-01-21T22:33:53.536Z,105.97
2019-01-21T22:36:24.815Z,95.92
2019-01-21T22:38:56.614Z,85.62
2019-01-21T22:41:27.912Z,94.83
2019-01-21T22:43:59.225Z,93.30
2019-01-21T22:46:30.562Z,91.47
2019-01-21T22:49:02.046Z,83.67
2019-01-21T22:51:33.376Z,88.00
2019-01-21T22:54:04.690Z,87.33
2019-01-21T22:56:36.102Z,90.72
2019-01-21T22:59:07.700Z,83.70
2019-01-21T23:01:40.356Z,92.27
2019-01-21T23:04:11.864Z,100.47
2019-01-21T23:06:43.278Z,96.92
2019-01-21T23:09:14.620Z,110.12
2019-01-21T23:11:46.605Z,107.35
2019-01-21T23:14:17.876Z,96.30
2019-01-21T23:16:49.202Z,107.87
2019-01-21T23:19:20.515Z,99.03
2019-01-21T23:21:52.129Z,97.37
2019-01-21T23:24:23.769Z,103.70
2019-01-21T23:26:55.280Z,104.97
2019-01-21T23:29:26.616Z,119.50
2019-01-21T23:31:57.915Z,110.65
2019-01-21T23:34:29.717Z,90.92
2019-01-21T23:37:01.159Z,91.53
2019-01-21T23:39:32.459Z,81.30
2019-01-21T23:42:03.829Z,87.22
2019-01-21T23:44:35.194Z,82.62
2019-01-21T23:47:06.669Z,86.95
2019-01-21T23:49:37.978Z,87.95
2019-01-21T23:52:09.302Z,87.05
2019-01-21T23:54:40.570Z,83.15
2019-01-21T23:57:12.424Z,91.17
2019-01-21T23:59:43.677Z,88.27
